Time;durP1;ratioP1;P1;durP2;ratioP2;P2;SDS_P1;SDS_P2;PMS_P1;PMS_P2;Temp;Humidity;BMP_temperature;BMP_pressure;BME280_temperature;BME280_humidity;BME280_pressure;Samples;Min_cycle;Max_cycle;Signal;HPM_P1;HPM_P2
2022/06/22 00:00:36;;;;;;;1.87;1.10;;;14.20;99.90;;;;;;4955732;28;20524;-92
2022/06/22 00:03:03;;;;;;;3.30;2.10;;;14.10;99.90;;;;;;4956289;28;20420;-93
2022/06/22 00:05:37;;;;;;;3.73;1.70;;;14.10;99.90;;;;;;4955949;29;20468;-92
2022/06/22 00:08:06;;;;;;;4.23;1.90;;;14.10;99.90;;;;;;4955054;29;20428;-92
2022/06/22 00:10:37;;;;;;;3.03;1.30;;;14.10;99.90;;;;;;4955796;29;20425;-88
2022/06/22 00:13:12;;;;;;;4.67;2.20;;;14.00;99.90;;;;;;4954925;28;20455;-86
2022/06/22 00:15:45;;;;;;;4.57;1.97;;;14.00;99.90;;;;;;4954589;29;20422;-85
2022/06/22 00:18:34;;;;;;;3.03;1.50;;;14.00;99.90;;;;;;4954588;29;20417;-86
2022/06/22 00:21:24;;;;;;;5.23;1.60;;;13.90;99.90;;;;;;4954937;28;20429;-85
2022/06/22 00:23:54;;;;;;;6.73;2.00;;;13.90;99.90;;;;;;4954161;28;20814;-84
2022/06/22 00:26:32;;;;;;;3.43;1.30;;;13.90;99.90;;;;;;4952977;28;20570;-85
2022/06/22 00:29:20;;;;;;;2.60;1.27;;;13.90;99.90;;;;;;4954817;29;20460;-86
2022/06/22 00:31:48;;;;;;;2.83;1.50;;;13.90;99.90;;;;;;4962253;28;20926;-86
2022/06/22 00:34:17;;;;;;;3.47;1.53;;;13.80;99.90;;;;;;4959956;29;20421;-85
2022/06/22 00:36:47;;;;;;;3.30;1.60;;;13.80;99.90;;;;;;4954566;29;20427;-85
2022/06/22 00:39:22;;;;;;;3.33;1.87;;;13.80;99.90;;;;;;4958163;28;20409;-86
2022/06/22 00:42:25;;;;;;;4.27;1.60;;;13.80;99.90;;;;;;4965012;28;20415;-85
2022/06/22 00:45:02;;;;;;;7.10;1.80;;;13.70;99.90;;;;;;4957732;28;20437;-85
2022/06/22 00:48:01;;;;;;;4.80;1.60;;;13.60;99.90;;;;;;4957943;28;20549;-85
2022/06/22 00:50:37;;;;;;;3.00;1.20;;;13.60;99.90;;;;;;4957396;28;20939;-86
2022/06/22 00:53:16;;;;;;;3.30;1.10;;;13.50;99.90;;;;;;4957861;29;20420;-86
2022/06/22 00:55:49;;;;;;;2.77;1.60;;;13.50;99.90;;;;;;4956272;28;20648;-86
2022/06/22 00:58:40;;;;;;;4.40;1.47;;;13.50;99.90;;;;;;4957700;28;20932;-85
2022/06/22 01:01:16;;;;;;;4.80;1.97;;;13.40;99.90;;;;;;4957704;28;20415;-86
2022/06/22 01:03:48;;;;;;;2.80;1.57;;;13.30;99.90;;;;;;4957697;28;20831;-88
2022/06/22 01:06:36;;;;;;;2.53;1.87;;;13.30;99.90;;;;;;4957573;28;20477;-85
2022/06/22 01:09:30;;;;;;;3.20;1.30;;;13.20;99.90;;;;;;4957556;29;20420;-86
2022/06/22 01:12:18;;;;;;;4.47;2.03;;;13.10;99.90;;;;;;4957287;28;20423;-87
2022/06/22 01:15:06;;;;;;;2.90;1.87;;;13.10;99.90;;;;;;4957573;28;20412;-87
2022/06/22 01:17:44;;;;;;;1.93;1.20;;;13.10;99.90;;;;;;4957570;29;20506;-87
2022/06/22 01:20:14;;;;;;;4.43;2.87;;;13.00;99.90;;;;;;4956405;28;20430;-86
2022/06/22 01:23:16;;;;;;;2.00;1.10;;;13.00;99.90;;;;;;4956420;29;20780;-86
2022/06/22 01:25:58;;;;;;;2.47;1.30;;;12.90;99.90;;;;;;4957123;28;20540;-86
2022/06/22 01:28:25;;;;;;;2.73;1.90;;;12.90;99.90;;;;;;4957127;29;20466;-87
2022/06/22 01:30:55;;;;;;;4.43;1.63;;;12.80;99.90;;;;;;4957106;29;20427;-84
2022/06/22 01:33:33;;;;;;;2.93;1.17;;;12.80;99.90;;;;;;4957080;29;20912;-85
2022/06/22 01:36:07;;;;;;;2.37;1.40;;;12.80;99.90;;;;;;4957101;28;21011;-86
2022/06/22 01:38:37;;;;;;;3.50;2.17;;;12.70;99.90;;;;;;4956994;28;20408;-88
2022/06/22 01:41:03;;;;;;;5.50;1.67;;;12.70;99.90;;;;;;4956494;28;20465;-86
2022/06/22 01:43:34;;;;;;;3.03;2.23;;;12.60;99.90;;;;;;4956823;29;20426;-85
2022/06/22 01:46:39;;;;;;;3.90;2.20;;;12.60;99.90;;;;;;4956764;28;20247;-86
2022/06/22 01:49:24;;;;;;;4.00;2.27;;;12.50;99.90;;;;;;4954794;28;20431;-85
2022/06/22 01:51:53;;;;;;;2.97;2.30;;;12.60;99.90;;;;;;4956744;29;20771;-86
2022/06/22 01:54:29;;;;;;;3.33;1.90;;;12.50;99.90;;;;;;4956607;28;20512;-85
2022/06/22 01:57:06;;;;;;;4.83;2.20;;;12.50;99.90;;;;;;4956353;28;20424;-86
2022/06/22 01:59:43;;;;;;;2.50;1.53;;;12.40;99.90;;;;;;4956627;29;20406;-85
2022/06/22 02:02:42;;;;;;;3.53;2.00;;;12.40;99.90;;;;;;4955282;29;20432;-87
2022/06/22 02:05:38;;;;;;;4.10;1.90;;;12.40;99.90;;;;;;4955975;29;20811;-86
2022/06/22 02:08:15;;;;;;;4.03;2.40;;;12.30;99.90;;;;;;4956526;29;20435;-86
2022/06/22 02:11:18;;;;;;;2.73;2.10;;;12.30;99.90;;;;;;4954973;29;20449;-86
2022/06/22 02:14:03;;;;;;;3.60;1.97;;;12.20;99.90;;;;;;4938457;29;20433;-85
2022/06/22 02:16:45;;;;;;;3.40;2.40;;;12.20;99.90;;;;;;4956191;29;20456;-86
2022/06/22 02:19:13;;;;;;;4.20;2.27;;;12.20;99.90;;;;;;4954931;29;20422;-86
2022/06/22 02:21:47;;;;;;;3.20;1.87;;;12.20;99.90;;;;;;4956250;29;20498;-86
2022/06/22 02:24:33;;;;;;;3.87;2.33;;;12.20;99.90;;;;;;4956200;29;20419;-86
2022/06/22 02:27:09;;;;;;;3.40;2.80;;;12.20;99.90;;;;;;4954422;28;20565;-86
2022/06/22 02:29:40;;;;;;;4.00;2.17;;;12.10;99.90;;;;;;4956403;28;20458;-87
2022/06/22 02:32:14;;;;;;;2.90;1.97;;;12.10;99.90;;;;;;4956381;28;20440;-87
2022/06/22 02:34:43;;;;;;;4.57;2.13;;;12.10;99.90;;;;;;4954622;29;20417;-86
2022/06/22 02:37:10;;;;;;;4.27;2.40;;;12.10;99.90;;;;;;4955707;28;20434;-86
2022/06/22 02:39:41;;;;;;;4.37;2.10;;;12.00;99.90;;;;;;4954630;29;20430;-86
2022/06/22 02:44:51;;;;;;;3.17;2.37;;;12.00;99.90;;;;;;4956145;29;20461;-87
2022/06/22 02:47:31;;;;;;;4.53;2.67;;;12.00;99.90;;;;;;4954414;29;20477;-88
2022/06/22 02:50:30;;;;;;;3.60;2.30;;;12.00;99.90;;;;;;4955960;29;20177;-87
2022/06/22 02:53:00;;;;;;;4.03;2.57;;;11.90;99.90;;;;;;4955641;28;20428;-88
2022/06/22 02:55:32;;;;;;;5.43;2.73;;;12.00;99.90;;;;;;4954453;28;20430;-87
2022/06/22 02:57:59;;;;;;;6.30;2.97;;;12.00;99.90;;;;;;4955863;28;20422;-87
2022/06/22 03:00:40;;;;;;;10.50;3.30;;;12.00;99.90;;;;;;4953922;28;20420;-84
2022/06/22 03:03:10;;;;;;;5.70;2.70;;;11.90;99.90;;;;;;4954315;28;20471;-87
2022/06/22 03:05:41;;;;;;;4.20;3.67;;;11.70;99.90;;;;;;4955249;28;21181;-84
2022/06/22 03:08:08;;;;;;;6.57;3.87;;;11.50;99.90;;;;;;4955307;29;20458;-85
2022/06/22 03:10:47;;;;;;;5.30;3.80;;;11.40;99.90;;;;;;4955012;28;20406;-86
2022/06/22 03:13:24;;;;;;;4.97;4.10;;;11.30;99.90;;;;;;4955418;28;20402;-88
2022/06/22 03:15:50;;;;;;;10.30;4.77;;;11.30;99.90;;;;;;4955194;28;20485;-86
2022/06/22 03:18:24;;;;;;;7.47;3.80;;;11.30;99.90;;;;;;4954239;28;20976;-85
2022/06/22 03:20:58;;;;;;;5.33;4.23;;;11.30;99.90;;;;;;4953543;28;20209;-85
2022/06/22 03:23:52;;;;;;;4.10;3.30;;;11.30;99.90;;;;;;4953118;28;20424;-85
2022/06/22 03:26:33;;;;;;;9.30;4.70;;;11.20;99.90;;;;;;4954745;29;20472;-85
2022/06/22 03:29:24;;;;;;;6.20;3.77;;;11.20;99.90;;;;;;4954950;28;20475;-85
2022/06/22 03:31:56;;;;;;;5.53;4.00;;;11.20;99.90;;;;;;4953899;28;20425;-85
2022/06/22 03:34:30;;;;;;;6.13;4.53;;;11.20;99.90;;;;;;4955007;28;20408;-85
2022/06/22 03:37:06;;;;;;;7.37;4.17;;;11.20;99.90;;;;;;4955018;29;20754;-85
2022/06/22 03:39:35;;;;;;;4.67;3.67;;;11.20;99.90;;;;;;4954923;28;20412;-83
2022/06/22 03:42:10;;;;;;;5.90;3.67;;;11.30;99.90;;;;;;4953322;28;20429;-84
2022/06/22 03:44:53;;;;;;;5.30;3.50;;;11.30;99.90;;;;;;4953568;29;20822;-84
2022/06/22 03:47:24;;;;;;;5.50;3.90;;;11.30;99.90;;;;;;4954853;28;20472;-83
2022/06/22 03:50:00;;;;;;;5.50;3.63;;;11.30;99.90;;;;;;4954883;29;20784;-84
2022/06/22 03:52:34;;;;;;;6.80;3.43;;;11.30;99.90;;;;;;4954862;29;20763;-84
2022/06/22 03:55:20;;;;;;;6.77;4.00;;;11.30;99.90;;;;;;4953299;29;20419;-84
2022/06/22 03:57:49;;;;;;;4.77;3.13;;;11.30;99.90;;;;;;4954656;28;20421;-84
2022/06/22 04:00:15;;;;;;;4.43;3.50;;;11.30;99.90;;;;;;4954777;28;20511;-85
2022/06/22 04:02:41;;;;;;;7.30;4.50;;;11.40;99.90;;;;;;4953480;29;20948;-85
2022/06/22 04:05:31;;;;;;;5.90;4.37;;;11.40;99.90;;;;;;4954684;28;20452;-85
2022/06/22 04:07:57;;;;;;;5.17;4.33;;;11.40;99.90;;;;;;4953532;28;20593;-85
2022/06/22 04:10:49;;;;;;;7.57;4.40;;;11.50;99.90;;;;;;4953155;28;20554;-81
2022/06/22 04:13:22;;;;;;;4.60;4.03;;;11.40;99.90;;;;;;4956282;28;20488;-80
2022/06/22 04:16:07;;;;;;;7.73;5.23;;;11.50;99.90;;;;;;4957491;29;20421;-81
2022/06/22 04:18:40;;;;;;;6.93;4.80;;;11.50;99.90;;;;;;4957228;29;20517;-81
2022/06/22 04:21:10;;;;;;;8.17;4.40;;;11.60;99.90;;;;;;4958299;28;20422;-81
2022/06/22 04:23:46;;;;;;;6.50;3.87;;;11.60;99.90;;;;;;4958546;28;20424;-82
2022/06/22 04:26:22;;;;;;;5.00;4.10;;;11.70;99.90;;;;;;4957908;28;20464;-83
2022/06/22 04:28:55;;;;;;;6.50;4.87;;;11.70;99.90;;;;;;4959394;28;20459;-81
2022/06/22 04:31:25;;;;;;;7.43;5.03;;;11.70;99.90;;;;;;4966132;28;20975;-82
2022/06/22 04:33:58;;;;;;;7.13;4.97;;;11.80;99.90;;;;;;4967122;28;20889;-81
2022/06/22 04:36:48;;;;;;;5.73;4.67;;;11.80;99.90;;;;;;4968203;28;20419;-82
2022/06/22 04:39:33;;;;;;;10.73;5.27;;;11.80;99.90;;;;;;4972160;28;20424;-82
2022/06/22 04:42:01;;;;;;;8.60;6.10;;;11.90;99.90;;;;;;4967710;28;20775;-82
2022/06/22 04:44:31;;;;;;;8.67;5.87;;;12.00;99.90;;;;;;4966548;28;20421;-82
2022/06/22 04:47:12;;;;;;;8.27;5.60;;;12.10;99.90;;;;;;4958548;28;20475;-82
2022/06/22 04:49:49;;;;;;;10.13;5.90;;;12.10;99.90;;;;;;4957796;28;20485;-81
2022/06/22 04:52:14;;;;;;;8.53;5.67;;;12.10;99.90;;;;;;4957815;29;20407;-81
2022/06/22 04:54:42;;;;;;;8.30;6.13;;;12.20;99.90;;;;;;4957310;29;20471;-81
2022/06/22 04:57:29;;;;;;;13.30;6.33;;;12.20;99.90;;;;;;4957706;28;20174;-82
2022/06/22 04:59:55;;;;;;;7.20;5.40;;;12.30;99.90;;;;;;4957599;29;20899;-82
2022/06/22 05:02:26;;;;;;;8.97;5.50;;;12.40;99.90;;;;;;4957582;28;20418;-83
2022/06/22 05:04:58;;;;;;;8.33;5.20;;;12.50;99.90;;;;;;4957539;29;20417;-82
2022/06/22 05:07:49;;;;;;;7.37;6.17;;;12.60;99.90;;;;;;4957479;28;20465;-82
2022/06/22 05:10:29;;;;;;;6.77;5.80;;;12.70;99.90;;;;;;4957056;28;20406;-81
2022/06/22 05:13:20;;;;;;;11.13;7.87;;;12.90;99.90;;;;;;4957517;28;20414;-81
2022/06/22 05:15:54;;;;;;;5.70;4.83;;;13.10;99.90;;;;;;4957406;28;20416;-81
2022/06/22 05:18:26;;;;;;;9.70;6.70;;;13.30;99.90;;;;;;4957256;29;20433;-82
2022/06/22 05:21:06;;;;;;;9.17;6.00;;;13.40;99.90;;;;;;4957191;28;20449;-82
2022/06/22 05:23:33;;;;;;;10.47;5.87;;;13.60;99.90;;;;;;4956699;28;20469;-82
2022/06/22 05:26:07;;;;;;;9.13;6.20;;;13.80;99.90;;;;;;4955896;28;20466;-82
2022/06/22 05:28:37;;;;;;;9.40;5.57;;;14.00;99.90;;;;;;4956996;29;20894;-82
2022/06/22 05:31:10;;;;;;;8.63;5.73;;;14.20;99.90;;;;;;4955834;29;20417;-82
2022/06/22 05:33:39;;;;;;;9.50;6.00;;;14.60;99.90;;;;;;4957090;29;20415;-82
2022/06/22 05:36:11;;;;;;;6.90;5.57;;;15.00;99.90;;;;;;4956984;29;20460;-83
2022/06/22 05:38:42;;;;;;;6.77;6.07;;;15.30;99.90;;;;;;4957082;29;20408;-82
2022/06/22 05:41:12;;;;;;;7.77;5.70;;;15.70;99.90;;;;;;4956605;29;20411;-82
2022/06/22 05:43:39;;;;;;;6.07;4.93;;;16.00;99.90;;;;;;4956923;28;20416;-83
2022/06/22 05:46:06;;;;;;;10.10;4.83;;;16.40;99.90;;;;;;4956720;28;20960;-82
2022/06/22 05:48:38;;;;;;;9.03;5.67;;;16.70;99.90;;;;;;4955511;29;20430;-82
2022/06/22 05:51:20;;;;;;;8.37;4.57;;;16.90;29.10;;;;;;4956690;28;20745;-83
2022/06/22 05:53:48;;;;;;;5.97;4.00;;;17.10;1.00;;;;;;4956759;28;20413;-82
2022/06/22 05:56:34;;;;;;;5.70;3.30;;;17.40;1.00;;;;;;4956220;28;20414;-81
2022/06/22 05:59:19;;;;;;;3.87;2.90;;;17.70;1.00;;;;;;4956667;28;20493;-82
2022/06/22 06:01:56;;;;;;;3.53;2.37;;;17.90;99.90;;;;;;4956505;28;20433;-81
2022/06/22 06:04:52;;;;;;;4.07;1.63;;;18.00;1.00;;;;;;4955888;28;20888;-83
2022/06/22 06:07:29;;;;;;;5.47;2.30;;;18.20;8.90;;;;;;4956729;29;20537;-83
2022/06/22 06:09:54;;;;;;;4.33;2.03;;;18.50;99.90;;;;;;4956018;29;20505;-83
2022/06/22 06:12:30;;;;;;;7.40;1.73;;;18.80;99.90;;;;;;4956640;29;20444;-82
2022/06/22 06:14:55;;;;;;;3.67;1.90;;;19.10;1.00;;;;;;4963212;28;20182;-81
2022/06/22 06:17:33;;;;;;;5.23;1.90;;;19.30;99.90;;;;;;4958460;29;20432;-81
2022/06/22 06:20:00;;;;;;;5.83;2.00;;;19.50;99.90;;;;;;4955084;29;20512;-81
2022/06/22 06:22:29;;;;;;;6.80;2.00;;;19.90;99.90;;;;;;4956175;28;20568;-81
2022/06/22 06:27:48;;;;;;;3.00;1.70;;;19.90;1.00;;;;;;4956173;29;20869;-82
2022/06/22 06:30:42;;;;;;;3.77;2.30;;;20.00;1.00;;;;;;4955750;29;20774;-82
2022/06/22 06:33:20;;;;;;;9.40;2.40;;;20.00;32.70;;;;;;4956147;29;20817;-82
2022/06/22 06:35:50;;;;;;;5.77;2.60;;;20.40;1.00;;;;;;4955636;28;20412;-85
2022/06/22 06:38:33;;;;;;;5.73;2.63;;;20.50;1.00;;;;;;4955846;28;20410;-84
2022/06/22 06:41:12;;;;;;;5.23;3.23;;;20.00;1.00;;;;;;4955299;28;20480;-84
2022/06/22 06:43:49;;;;;;;5.03;2.23;;;20.10;37.30;;;;;;4955635;28;20458;-87
2022/06/22 06:46:21;;;;;;;3.80;1.90;;;20.80;1.00;;;;;;4955621;29;20461;-86
2022/06/22 06:49:02;;;;;;;3.60;1.90;;;21.30;1.00;;;;;;4954408;29;20475;-84
2022/06/22 06:51:31;;;;;;;5.30;2.60;;;21.50;99.90;;;;;;4954384;28;20628;-84
2022/06/22 06:54:00;;;;;;;5.00;2.53;;;21.70;99.90;;;;;;4955601;28;20423;-85
2022/06/22 06:56:43;;;;;;;4.93;1.90;;;21.60;99.90;;;;;;4955552;29;20945;-86
2022/06/22 06:59:16;;;;;;;3.90;1.43;;;22.10;99.90;;;;;;4955629;28;20424;-84
2022/06/22 07:01:45;;;;;;;5.47;2.20;;;22.60;99.90;;;;;;4955460;28;20405;-83
2022/06/22 07:04:16;;;;;;;4.20;2.07;;;22.90;99.90;;;;;;4954086;28;20430;-84
2022/06/22 07:06:43;;;;;;;3.77;2.10;;;23.30;99.90;;;;;;4954092;28;20568;-85
2022/06/22 07:09:28;;;;;;;6.87;1.90;;;23.80;99.90;;;;;;4955325;28;20771;-85
2022/06/22 07:12:07;;;;;;;5.73;1.90;;;24.70;95.70;;;;;;4955306;28;20492;-84
2022/06/22 07:14:39;;;;;;;2.53;1.20;;;25.80;84.20;;;;;;4955124;28;20429;-84
2022/06/22 07:17:09;;;;;;;3.30;1.87;;;27.00;36.00;;;;;;4953988;29;20929;-85
2022/06/22 07:19:43;;;;;;;5.57;1.63;;;28.00;16.30;;;;;;4955145;29;20500;-85
2022/06/22 07:22:36;;;;;;;4.93;2.10;;;28.90;1.40;;;;;;4955108;28;20427;-84
2022/06/22 07:25:23;;;;;;;3.20;1.80;;;29.30;1.00;;;;;;4954675;29;20464;-85
2022/06/22 07:28:15;;;;;;;4.20;2.27;;;29.30;1.00;;;;;;4955014;29;20468;-84
2022/06/22 07:30:48;;;;;;;3.73;1.47;;;29.20;1.00;;;;;;4954997;29;20417;-84
2022/06/22 07:33:41;;;;;;;4.93;1.90;;;29.90;1.00;;;;;;4954931;29;20872;-84
2022/06/22 07:36:16;;;;;;;6.40;1.60;;;30.30;1.00;;;;;;4954895;29;20943;-84
2022/06/22 07:38:51;;;;;;;4.10;1.50;;;31.40;1.00;;;;;;4954959;28;20432;-84
2022/06/22 07:41:19;;;;;;;7.00;2.10;;;32.40;1.00;;;;;;4954617;29;20431;-84
2022/06/22 07:44:04;;;;;;;3.80;1.63;;;32.30;1.00;;;;;;4954874;28;20424;-85
2022/06/22 07:47:08;;;;;;;4.83;1.97;;;31.60;1.00;;;;;;4954722;28;20468;-85
2022/06/22 07:50:03;;;;;;;8.33;2.80;;;32.70;1.00;;;;;;4958700;28;20412;-85
2022/06/22 07:52:35;;;;;;;5.97;2.23;;;33.30;1.00;;;;;;4958792;29;20416;-85
2022/06/22 07:55:31;;;;;;;4.20;1.30;;;33.70;1.00;;;;;;4958617;28;20412;-84
2022/06/22 07:58:06;;;;;;;3.80;1.57;;;34.10;1.00;;;;;;4959012;28;20404;-84
2022/06/22 08:00:33;;;;;;;2.90;1.67;;;34.80;1.00;;;;;;4958873;29;20415;-85
2022/06/22 08:03:20;;;;;;;3.57;1.60;;;35.20;1.00;;;;;;4957859;29;20507;-84
2022/06/22 08:05:49;;;;;;;3.73;2.13;;;34.90;1.00;;;;;;4958683;29;20546;-85
2022/06/22 08:08:26;;;;;;;3.93;1.80;;;34.90;1.00;;;;;;4958744;29;20421;-85
2022/06/22 08:11:02;;;;;;;4.90;2.10;;;35.10;1.00;;;;;;4958440;28;20800;-85
2022/06/22 08:13:49;;;;;;;3.93;2.47;;;35.70;1.00;;;;;;4958627;29;20483;-85
2022/06/22 08:16:20;;;;;;;4.50;2.47;;;35.30;1.00;;;;;;4958482;29;20480;-85
2022/06/22 08:18:45;;;;;;;3.83;1.90;;;33.60;1.00;;;;;;4958526;28;20416;-85
2022/06/22 08:21:16;;;;;;;3.60;2.00;;;33.20;1.00;;;;;;4958451;28;20427;-83
2022/06/22 08:23:42;;;;;;;5.20;2.40;;;34.50;1.00;;;;;;4958470;28;20173;-84
2022/06/22 08:26:18;;;;;;;3.60;2.13;;;32.80;1.00;;;;;;4957883;29;20468;-83
2022/06/22 08:28:44;;;;;;;4.33;1.77;;;34.20;1.00;;;;;;4958009;28;20904;-84
2022/06/22 08:31:10;;;;;;;3.50;1.57;;;35.30;1.00;;;;;;4958196;28;20443;-84
2022/06/22 08:33:50;;;;;;;5.20;2.50;;;36.20;1.00;;;;;;4958205;29;20173;-84
2022/06/22 08:36:31;;;;;;;3.53;2.40;;;37.30;1.00;;;;;;4958177;28;20987;-83
2022/06/22 08:39:01;;;;;;;4.87;2.37;;;37.50;1.00;;;;;;4958180;28;20412;-84
2022/06/22 08:41:46;;;;;;;5.40;2.03;;;36.80;1.00;;;;;;4958053;29;20843;-86
2022/06/22 08:44:18;;;;;;;3.27;2.00;;;37.20;1.00;;;;;;4958138;28;20451;-84
2022/06/22 08:46:49;;;;;;;7.43;2.63;;;35.40;1.00;;;;;;4957849;29;20480;-85
2022/06/22 08:49:43;;;;;;;5.40;2.03;;;36.00;1.00;;;;;;4957796;29;20463;-86
2022/06/22 08:52:25;;;;;;;4.03;1.87;;;35.60;1.00;;;;;;4957772;29;20792;-86
2022/06/22 08:55:08;;;;;;;6.47;1.97;;;37.30;1.00;;;;;;4957473;28;20435;-86
2022/06/22 08:58:19;;;;;;;4.97;1.70;;;37.00;1.00;;;;;;4956460;29;20484;-86
2022/06/22 09:01:14;;;;;;;4.20;2.30;;;36.30;1.00;;;;;;4955393;28;20431;-87
2022/06/22 09:04:12;;;;;;;2.73;1.57;;;35.30;1.00;;;;;;4957574;29;20419;-86
2022/06/22 09:06:57;;;;;;;4.70;1.70;;;36.60;1.00;;;;;;4957593;29;20829;-87
2022/06/22 09:09:42;;;;;;;4.50;2.70;;;36.80;1.00;;;;;;4957458;29;20409;-87
2022/06/22 09:12:33;;;;;;;3.60;2.13;;;37.70;1.00;;;;;;4957528;29;20417;-87
2022/06/22 09:15:39;;;;;;;3.63;1.57;;;37.30;1.00;;;;;;4957486;29;20408;-86
2022/06/22 09:18:21;;;;;;;4.23;2.00;;;38.00;1.00;;;;;;4957447;29;20774;-87
2022/06/22 09:21:10;;;;;;;4.30;2.00;;;36.60;1.00;;;;;;4957456;29;20479;-87
2022/06/22 09:23:49;;;;;;;5.57;2.13;;;37.30;1.00;;;;;;4957232;29;20965;-86
2022/06/22 09:26:41;;;;;;;5.07;2.00;;;37.60;1.00;;;;;;4956837;29;20484;-87
2022/06/22 09:29:33;;;;;;;3.50;2.20;;;38.20;1.00;;;;;;4955849;28;20993;-91
2022/06/22 09:32:34;;;;;;;2.83;1.63;;;38.20;1.00;;;;;;4957591;29;20463;-91
2022/06/22 09:35:30;;;;;;;4.03;2.47;;;39.30;1.00;;;;;;4957578;28;20436;-91
2022/06/22 09:38:15;;;;;;;3.93;2.30;;;39.90;1.00;;;;;;4955921;29;20429;-88
2022/06/22 09:40:45;;;;;;;6.33;2.60;;;41.10;1.00;;;;;;4956422;29;20409;-88
2022/06/22 09:43:49;;;;;;;4.20;1.80;;;40.50;1.00;;;;;;4957270;29;20754;-88
2022/06/22 09:46:48;;;;;;;3.17;2.10;;;38.90;1.00;;;;;;4955919;28;20472;-89
2022/06/22 09:49:16;;;;;;;4.20;2.50;;;39.60;1.00;;;;;;4956918;29;20487;-89
2022/06/22 09:52:04;;;;;;;2.70;2.03;;;38.90;1.00;;;;;;4957451;29;20412;-89
2022/06/22 09:57:59;;;;;;;3.70;2.63;;;41.20;1.00;;;;;;4957004;29;20412;-89
2022/06/22 10:00:47;;;;;;;2.80;2.20;;;43.00;1.00;;;;;;4956892;28;20405;-90
2022/06/22 10:03:23;;;;;;;2.80;1.67;;;43.50;1.00;;;;;;4955766;29;20448;-89
2022/06/22 10:06:13;;;;;;;3.27;2.57;;;43.80;1.00;;;;;;4955995;29;20471;-89
2022/06/22 10:09:09;;;;;;;4.77;2.03;;;42.40;1.00;;;;;;4957289;29;20425;-88
2022/06/22 10:12:23;;;;;;;2.53;2.10;;;43.80;1.00;;;;;;4955049;28;20428;-87
2022/06/22 10:15:29;;;;;;;4.97;3.20;;;43.80;1.00;;;;;;4955547;29;20425;-87
2022/06/22 10:18:16;;;;;;;5.60;2.13;;;43.40;1.00;;;;;;4963319;28;20421;-89
2022/06/22 10:20:49;;;;;;;4.77;2.13;;;43.90;1.00;;;;;;4959876;29;20475;-88
2022/06/22 10:23:34;;;;;;;5.30;2.30;;;44.60;1.00;;;;;;4956638;28;20409;-91
2022/06/22 10:26:41;;;;;;;3.87;2.50;;;45.00;1.00;;;;;;4955940;28;20880;-88
2022/06/22 10:29:29;;;;;;;4.70;2.70;;;45.20;1.00;;;;;;4956012;28;20487;-90
2022/06/22 10:32:17;;;;;;;4.03;2.43;;;43.60;1.00;;;;;;4956277;29;20416;-90
2022/06/22 10:35:21;;;;;;;5.93;2.53;;;40.00;1.00;;;;;;4956218;29;20992;-89
2022/06/22 10:38:22;;;;;;;6.90;2.57;;;37.80;1.00;;;;;;4955455;29;20775;-89
2022/06/22 10:47:37;;;;;;;3.23;1.80;;;41.80;1.00;;;;;;4956012;29;20490;-89
2022/06/22 10:50:23;;;;;;;2.63;1.60;;;42.30;1.00;;;;;;4954898;29;20439;-89
2022/06/22 10:53:15;;;;;;;3.50;2.30;;;44.00;1.00;;;;;;4955995;29;20409;-87
2022/06/22 10:55:53;;;;;;;7.63;2.30;;;45.10;1.00;;;;;;4955562;29;20415;-89
2022/06/22 10:58:37;;;;;;;6.87;2.47;;;45.30;1.00;;;;;;4955785;29;20427;-90
2022/06/22 11:01:50;;;;;;;7.67;2.73;;;43.80;1.00;;;;;;4960771;28;20758;-86
2022/06/22 11:04:28;;;;;;;6.73;2.30;;;41.60;1.00;;;;;;4962895;28;20467;-85
2022/06/22 11:07:06;;;;;;;6.80;2.30;;;43.20;1.00;;;;;;4969980;28;20467;-89
2022/06/22 11:10:15;;;;;;;4.33;2.43;;;44.30;1.00;;;;;;4964009;28;20417;-89
2022/06/22 11:13:05;;;;;;;5.10;2.97;;;45.50;1.00;;;;;;4972030;28;21005;-90
2022/06/22 11:15:37;;;;;;;6.03;3.50;;;44.00;1.00;;;;;;4970262;28;20435;-86
2022/06/22 11:18:14;;;;;;;5.43;4.67;;;44.60;1.00;;;;;;4971479;28;20427;-88
2022/06/22 11:20:59;;;;;;;5.30;3.53;;;45.20;1.00;;;;;;4974206;28;20775;-90
2022/06/22 11:23:41;;;;;;;3.10;1.90;;;44.40;1.00;;;;;;4974277;28;20423;-88
2022/06/22 11:33:01;;;;;;;3.30;2.50;;;42.10;1.00;;;;;;4974920;28;20439;-89
2022/06/22 11:35:59;;;;;;;3.30;2.20;;;43.90;1.00;;;;;;4989603;28;20515;-89
2022/06/22 11:38:43;;;;;;;6.30;2.43;;;45.00;1.00;;;;;;4974550;28;20428;-89
2022/06/22 11:41:32;;;;;;;5.33;2.83;;;45.70;1.00;;;;;;4974250;28;20474;-89
2022/06/22 11:44:16;;;;;;;3.93;2.67;;;44.10;1.00;;;;;;4974312;28;20420;-88
2022/06/22 11:46:55;;;;;;;4.20;2.73;;;42.80;1.00;;;;;;4974089;28;20482;-87
2022/06/22 11:49:48;;;;;;;5.13;2.70;;;43.60;1.00;;;;;;4974280;28;20403;-87
2022/06/22 11:52:35;;;;;;;4.07;2.70;;;43.50;1.00;;;;;;4974260;28;20507;-86
2022/06/22 11:55:27;;;;;;;5.60;2.83;;;43.10;1.00;;;;;;4988928;28;20526;-88
2022/06/22 11:58:11;;;;;;;3.40;2.53;;;44.00;1.00;;;;;;4989081;28;20427;-89
2022/06/22 12:01:25;;;;;;;4.50;2.90;;;44.50;1.00;;;;;;4989018;28;20510;-88
2022/06/22 12:04:18;;;;;;;6.40;2.87;;;43.50;1.00;;;;;;4964206;28;20424;-88
2022/06/22 12:07:03;;;;;;;4.13;2.10;;;43.60;1.00;;;;;;4989031;28;20603;-87
2022/06/22 12:09:39;;;;;;;6.07;2.60;;;43.80;1.00;;;;;;4988584;28;20427;-88
2022/06/22 12:12:28;;;;;;;3.50;2.10;;;43.00;1.00;;;;;;4974072;28;20754;-87
2022/06/22 12:15:16;;;;;;;3.97;3.03;;;43.20;1.00;;;;;;4974116;28;20408;-88
2022/06/22 12:18:23;;;;;;;3.17;2.87;;;43.10;1.00;;;;;;4974675;28;20482;-86
2022/06/22 12:21:06;;;;;;;4.10;2.40;;;43.60;1.00;;;;;;4974676;28;20416;-89
2022/06/22 12:23:55;;;;;;;7.40;2.13;;;44.00;1.00;;;;;;4973872;28;20439;-88
2022/06/22 12:26:36;;;;;;;3.90;2.53;;;45.40;1.00;;;;;;4988657;28;20558;-86
2022/06/22 12:29:26;;;;;;;4.17;2.60;;;44.80;1.00;;;;;;4986357;28;20467;-88
2022/06/22 12:32:01;;;;;;;3.73;1.93;;;45.70;1.00;;;;;;4987853;28;20432;-85
2022/06/22 12:35:00;;;;;;;4.10;1.93;;;46.40;1.00;;;;;;4974734;28;20776;-87
2022/06/22 12:37:30;;;;;;;2.57;2.00;;;46.50;1.00;;;;;;4976390;28;20423;-87
2022/06/22 12:40:01;;;;;;;2.20;1.37;;;46.10;1.00;;;;;;4975946;28;20498;-87
2022/06/22 12:43:03;;;;;;;2.27;1.90;;;45.00;1.00;;;;;;4976259;28;20419;-87
2022/06/22 12:45:48;;;;;;;2.43;1.90;;;43.60;1.00;;;;;;4991209;28;20411;-87
2022/06/22 12:48:35;;;;;;;2.00;1.70;;;44.50;1.00;;;;;;4991102;28;21004;-88
2022/06/22 12:51:26;;;;;;;3.60;1.60;;;43.10;1.00;;;;;;4976071;28;20450;-87
2022/06/22 12:54:07;;;;;;;3.40;1.73;;;43.10;1.00;;;;;;4990999;28;20447;-86
2022/06/22 12:56:46;;;;;;;3.10;1.90;;;44.30;1.00;;;;;;4976810;28;20427;-92
2022/06/22 12:59:32;;;;;;;4.20;1.80;;;44.10;1.00;;;;;;4976598;28;20439;-89
2022/06/22 13:01:58;;;;;;;4.13;1.77;;;43.30;1.00;;;;;;4992234;28;20562;-89
2022/06/22 13:04:28;;;;;;;2.73;1.40;;;43.90;1.00;;;;;;4976142;28;20511;-88
2022/06/22 13:07:00;;;;;;;4.87;2.37;;;43.70;1.00;;;;;;4976039;28;20169;-91
2022/06/22 13:09:27;;;;;;;8.20;2.87;;;43.50;1.00;;;;;;4975686;28;20786;-85
2022/06/22 13:11:55;;;;;;;3.20;1.60;;;43.70;1.00;;;;;;4975869;28;20436;-91
2022/06/22 13:14:40;;;;;;;5.93;1.30;;;44.10;1.00;;;;;;4976446;28;20494;-87
2022/06/22 13:17:06;;;;;;;3.30;1.30;;;43.70;1.00;;;;;;4975841;28;20832;-87
2022/06/22 13:19:49;;;;;;;3.30;2.00;;;42.60;1.00;;;;;;4975767;28;20412;-88
2022/06/22 13:22:37;;;;;;;2.20;1.13;;;43.60;1.00;;;;;;4975647;28;20606;-87
2022/06/22 13:25:16;;;;;;;2.83;1.50;;;44.90;1.00;;;;;;4975260;28;20404;-87
2022/06/22 13:28:14;;;;;;;2.83;1.70;;;45.30;1.00;;;;;;4975279;28;20419;-89
2022/06/22 13:30:56;;;;;;;3.60;1.73;;;43.80;1.00;;;;;;4990351;28;20501;-87
2022/06/22 13:33:25;;;;;;;2.13;1.33;;;43.40;1.00;;;;;;4975552;28;20415;-87
2022/06/22 13:35:59;;;;;;;3.47;1.43;;;43.30;1.00;;;;;;4975367;28;20466;-88
2022/06/22 13:38:51;;;;;;;8.50;2.20;;;42.80;1.00;;;;;;4990027;28;20482;-88
2022/06/22 13:41:44;;;;;;;3.80;1.80;;;42.80;1.00;;;;;;4975261;28;20975;-86
2022/06/22 13:44:28;;;;;;;3.60;2.00;;;41.30;1.00;;;;;;4974599;28;20474;-87
2022/06/22 13:46:58;;;;;;;2.77;1.47;;;42.60;1.00;;;;;;4976588;28;20412;-87
2022/06/22 13:50:14;;;;;;;4.13;1.93;;;43.10;1.00;;;;;;4990203;28;20452;-86
2022/06/22 13:52:47;;;;;;;5.07;1.87;;;42.10;1.00;;;;;;4975629;28;20456;-87
2022/06/22 13:55:51;;;;;;;5.33;1.80;;;41.70;1.00;;;;;;4989753;28;21042;-87
2022/06/22 13:58:23;;;;;;;3.00;1.17;;;39.40;1.00;;;;;;4973856;28;20547;-90
2022/06/22 14:01:11;;;;;;;4.23;1.80;;;37.00;1.00;;;;;;4974866;28;20423;-87
2022/06/22 14:04:17;;;;;;;3.33;2.10;;;35.00;1.00;;;;;;4974816;28;20510;-86
2022/06/22 14:06:59;;;;;;;5.10;3.20;;;33.70;1.00;;;;;;4975757;28;20474;-86
2022/06/22 14:09:44;;;;;;;3.83;2.00;;;33.20;1.00;;;;;;4974325;28;20424;-86
2022/06/22 14:12:21;;;;;;;3.70;1.70;;;32.30;1.00;;;;;;4988834;28;20448;-87
2022/06/22 14:15:26;;;;;;;3.53;1.77;;;31.60;1.00;;;;;;4975182;28;20419;-87
2022/06/22 14:18:03;;;;;;;5.33;1.83;;;31.20;1.00;;;;;;4989392;28;20483;-89
2022/06/22 14:20:43;;;;;;;4.10;2.37;;;30.40;1.00;;;;;;4989310;28;20494;-87
2022/06/22 14:23:15;;;;;;;3.53;1.33;;;30.00;1.00;;;;;;4996557;28;20486;-87